createdAt,value
2022-11-07T00:00:57.823Z,306
2022-11-07T00:02:59.334Z,211
2022-11-07T00:05:00.871Z,211
2022-11-07T00:07:02.056Z,231
2022-11-07T00:09:03.368Z,231
2022-11-07T00:11:05.122Z,228
2022-11-07T00:13:06.202Z,263
2022-11-07T00:15:07.335Z,271
2022-11-07T00:17:09.228Z,246
2022-11-07T00:19:11.106Z,246
2022-11-07T00:21:12.085Z,335
2022-11-07T00:25:15.336Z,238
2022-11-07T00:27:16.581Z,184
2022-11-07T00:29:17.805Z,263
2022-11-07T00:31:19.316Z,215
2022-11-07T00:33:20.687Z,288
2022-11-07T00:35:22.052Z,360
2022-11-07T00:37:23.887Z,171
2022-11-07T00:39:24.865Z,211
2022-11-07T00:41:26.563Z,243
2022-11-07T00:43:28.320Z,360
2022-11-07T00:45:30.165Z,194
2022-11-07T00:47:31.249Z,340
2022-11-07T00:49:32.655Z,260
2022-11-07T00:51:33.763Z,235
2022-11-07T00:53:35.244Z,199
2022-11-07T00:55:36.719Z,220
2022-11-07T00:57:38.387Z,354
2022-11-07T00:59:39.962Z,249
2022-11-07T01:01:41.911Z,215
2022-11-07T01:03:42.971Z,212
2022-11-07T01:07:46.093Z,152
2022-11-07T01:09:47.707Z,224
2022-11-07T01:11:49.445Z,177
2022-11-07T01:13:51.331Z,162
2022-11-07T01:17:54.087Z,224
2022-11-07T01:19:55.608Z,224
2022-11-07T01:22:40.812Z,173
2022-11-07T01:24:42.633Z,173
2022-11-07T01:26:43.700Z,166
2022-11-07T01:28:44.911Z,184
2022-11-07T01:32:47.914Z,164
2022-11-07T01:34:49.750Z,203
2022-11-07T01:36:51.121Z,218
2022-11-07T01:38:52.216Z,169
2022-11-07T01:40:54.051Z,169
2022-11-07T01:45:04.575Z,180
2022-11-07T01:46:58.161Z,180
2022-11-07T01:48:59.820Z,171
2022-11-07T01:51:01.240Z,178
2022-11-07T01:55:04.174Z,178
2022-11-07T01:57:05.722Z,178
2022-11-07T02:01:08.319Z,174
2022-11-07T02:05:11.201Z,182
2022-11-07T02:07:13.047Z,193
2022-11-07T02:09:14.500Z,174
2022-11-07T02:11:15.530Z,180
2022-11-07T02:15:19.165Z,209
2022-11-07T02:17:20.534Z,206
2022-11-07T02:21:23.476Z,232
2022-11-07T02:23:25.101Z,232
2022-11-07T02:25:26.427Z,232
2022-11-07T02:27:28.175Z,232
2022-11-07T02:29:29.861Z,171
2022-11-07T02:33:32.548Z,178
2022-11-07T02:37:35.394Z,184
2022-11-07T02:39:36.615Z,184
2022-11-07T02:43:38.757Z,185
2022-11-07T02:47:41.951Z,185
2022-11-07T02:49:43.155Z,185
2022-11-07T02:53:46.169Z,185
2022-11-07T02:55:47.722Z,185
2022-11-07T02:57:48.940Z,185
2022-11-07T02:59:50.061Z,185
2022-11-07T03:01:51.608Z,185
2022-11-07T03:03:53.360Z,185
2022-11-07T03:05:54.741Z,185
2022-11-07T03:07:56.153Z,185
2022-11-07T03:09:57.514Z,185
2022-11-07T03:11:59.205Z,185
2022-11-07T03:14:00.650Z,185
2022-11-07T03:16:01.788Z,185
2022-11-07T03:18:03.490Z,185
2022-11-07T03:20:05.259Z,185
2022-11-07T03:22:06.735Z,185
2022-11-07T03:26:09.470Z,185
2022-11-07T03:28:11.042Z,185
2022-11-07T03:32:14.348Z,185
2022-11-07T03:36:16.749Z,185
2022-11-07T03:38:17.933Z,185
2022-11-07T03:40:19.541Z,185
2022-11-07T03:42:20.673Z,185
2022-11-07T03:44:22.551Z,185
2022-11-07T03:46:23.563Z,185
2022-11-07T03:48:24.547Z,185
2022-11-07T03:50:26.219Z,185
2022-11-07T03:52:27.783Z,185
2022-11-07T03:54:29.322Z,185
2022-11-07T03:56:30.482Z,185
2022-11-07T03:58:31.817Z,185
2022-11-07T04:00:32.815Z,185
2022-11-07T04:02:34.218Z,185
2022-11-07T04:04:35.938Z,185
2022-11-07T04:08:38.738Z,185
2022-11-07T04:10:40.614Z,185
2022-11-07T04:12:41.841Z,185
2022-11-07T04:14:43.047Z,185
2022-11-07T04:18:45.697Z,185
2022-11-07T04:20:46.749Z,185
2022-11-07T04:22:48.214Z,185
2022-11-07T04:24:49.286Z,185
2022-11-07T04:28:52.793Z,185
2022-11-07T04:30:54.180Z,185
2022-11-07T04:32:55.193Z,185
2022-11-07T04:34:56.763Z,185
2022-11-07T04:41:00.217Z,185
2022-11-07T04:43:01.375Z,185
2022-11-07T04:45:02.358Z,185
2022-11-07T04:47:03.976Z,185
2022-11-07T04:49:05.024Z,185
2022-11-07T04:51:06.195Z,185
2022-11-07T04:57:09.508Z,185
2022-11-07T04:59:10.602Z,185
2022-11-07T05:01:11.780Z,185
2022-11-07T05:03:13.114Z,185
2022-11-07T05:07:16.039Z,185
2022-11-07T05:09:17.649Z,185
2022-11-07T05:11:19.249Z,185
2022-11-07T05:13:20.241Z,185
2022-11-07T05:17:26.928Z,185
2022-11-07T05:19:25.096Z,185
2022-11-07T05:21:26.654Z,185
2022-11-07T05:23:28.247Z,193
2022-11-07T05:25:30.076Z,193
2022-11-07T05:27:31.301Z,193
2022-11-07T05:29:32.948Z,193
2022-11-07T05:31:34.627Z,193
2022-11-07T05:33:36.537Z,193
2022-11-07T05:35:37.672Z,193
2022-11-07T05:37:39.429Z,193
2022-11-07T05:39:41.069Z,193
2022-11-07T05:41:42.597Z,194
2022-11-07T05:43:43.857Z,195
2022-11-07T05:45:45.283Z,194
2022-11-07T05:49:48.522Z,194
2022-11-07T05:51:49.563Z,194
2022-11-07T05:53:51.157Z,182
2022-11-07T05:55:52.695Z,186
2022-11-07T05:59:55.668Z,186
2022-11-07T06:01:57.257Z,186
2022-11-07T06:03:59.118Z,186
2022-11-07T06:06:00.729Z,186
2022-11-07T06:08:01.819Z,186
2022-11-07T06:10:03.020Z,186
2022-11-07T06:12:04.582Z,186
2022-11-07T06:16:07.304Z,160
2022-11-07T06:18:08.640Z,160
2022-11-07T06:20:09.931Z,160
2022-11-07T06:22:11.108Z,160
2022-11-07T06:24:15.193Z,160
2022-11-07T06:26:13.718Z,160
2022-11-07T06:28:15.160Z,160
2022-11-07T06:32:17.433Z,133
2022-11-07T06:34:18.652Z,133
2022-11-07T06:36:19.893Z,174
2022-11-07T06:38:21.351Z,169
2022-11-07T06:42:23.961Z,169
2022-11-07T06:44:25.760Z,360
2022-11-07T06:46:26.961Z,360
2022-11-07T06:48:28.196Z,360
2022-11-07T06:52:31.467Z,167
2022-11-07T06:54:33.246Z,167
2022-11-07T06:56:34.662Z,167
2022-11-07T06:58:36.337Z,167
2022-11-07T07:02:57.239Z,176
2022-11-07T07:04:40.647Z,176
2022-11-07T07:06:41.988Z,175
2022-11-07T07:08:43.276Z,175
2022-11-07T07:10:44.468Z,175
2022-11-07T07:12:46.049Z,175
2022-11-07T07:14:47.346Z,175
2022-11-07T07:20:51.793Z,175
2022-11-07T07:22:57.937Z,175
2022-11-07T07:24:54.891Z,175
2022-11-07T07:26:56.001Z,175
2022-11-07T07:30:59.153Z,175
2022-11-07T07:35:02.023Z,175
2022-11-07T07:37:03.332Z,175
2022-11-07T07:41:05.806Z,175
2022-11-07T07:45:08.477Z,176
2022-11-07T07:47:11.378Z,176
2022-11-07T07:49:11.310Z,167
2022-11-07T07:51:12.658Z,167
2022-11-07T07:53:13.985Z,167
2022-11-07T07:55:15.519Z,167
2022-11-07T07:57:16.415Z,167
2022-11-07T07:59:18.204Z,167
2022-11-07T08:01:19.794Z,170
2022-11-07T08:03:21.142Z,160
2022-11-07T08:05:22.023Z,161
2022-11-07T08:08:07.656Z,161
2022-11-07T08:10:27.489Z,161
2022-11-07T08:14:12.235Z,162
2022-11-07T08:18:15.417Z,163
2022-11-07T08:20:16.938Z,163
2022-11-07T08:22:17.969Z,163
2022-11-07T08:24:19.166Z,163
2022-11-07T08:26:20.755Z,163
2022-11-07T08:28:22.532Z,159
2022-11-07T08:30:24.249Z,159
2022-11-07T08:32:25.213Z,159
2022-11-07T08:34:26.497Z,159
2022-11-07T08:38:29.314Z,162
2022-11-07T08:40:30.714Z,162
2022-11-07T08:42:32.432Z,162
2022-11-07T08:44:34.316Z,162
2022-11-07T08:46:36.170Z,162
2022-11-07T08:50:38.351Z,180
2022-11-07T08:52:40.028Z,179
2022-11-07T08:54:40.922Z,179
2022-11-07T08:56:42.273Z,174
2022-11-07T09:00:44.934Z,174
2022-11-07T09:03:24.141Z,175
2022-11-07T09:04:47.658Z,175
2022-11-07T09:06:48.609Z,175
2022-11-07T09:10:51.415Z,175
2022-11-07T09:12:52.881Z,176
2022-11-07T09:16:55.032Z,177
2022-11-07T09:20:57.868Z,172
2022-11-07T09:22:58.918Z,239
2022-11-07T09:27:00.941Z,183
2022-11-07T09:29:02.691Z,208
2022-11-07T09:31:04.484Z,208
2022-11-07T09:33:05.768Z,207
2022-11-07T09:39:10.046Z,138
2022-11-07T09:41:11.543Z,201
2022-11-07T09:45:14.317Z,213
2022-11-07T09:49:17.100Z,226
2022-11-07T09:51:18.566Z,176
2022-11-07T09:53:19.540Z,222
2022-11-07T09:55:20.625Z,222
2022-11-07T09:59:22.662Z,221
2022-11-07T10:01:24.525Z,221
2022-11-07T10:03:25.234Z,214
2022-11-07T10:05:26.512Z,235
2022-11-07T10:07:27.511Z,237
2022-11-07T10:09:29.019Z,237
2022-11-07T10:11:30.535Z,211
2022-11-07T10:13:32.057Z,211
2022-11-07T10:15:33.733Z,211
2022-11-07T10:17:35.776Z,161
2022-11-07T10:19:37.270Z,182
2022-11-07T10:21:39.399Z,182
2022-11-07T10:23:40.747Z,173
2022-11-07T10:25:41.757Z,196
2022-11-07T10:27:43.499Z,181
2022-11-07T10:31:46.132Z,220
2022-11-07T10:33:47.766Z,218
2022-11-07T10:37:50.443Z,179
2022-11-07T10:41:52.157Z,203
2022-11-07T10:43:53.199Z,203
2022-11-07T10:45:54.676Z,203
2022-11-07T10:47:56.415Z,231
2022-11-07T10:51:59.208Z,215
2022-11-07T10:54:00.631Z,231
2022-11-07T10:56:01.932Z,211
2022-11-07T10:58:03.538Z,240
2022-11-07T11:02:06.884Z,242
2022-11-07T11:04:08.382Z,267
2022-11-07T11:06:09.440Z,267
2022-11-07T11:10:12.497Z,222
2022-11-07T11:14:15.662Z,191
2022-11-07T11:16:17.164Z,200
2022-11-07T11:18:18.461Z,236
2022-11-07T11:20:19.486Z,203
2022-11-07T11:24:22.836Z,260
2022-11-07T11:26:24.185Z,235
2022-11-07T11:28:25.723Z,228
2022-11-07T11:30:26.802Z,270
2022-11-07T11:34:29.864Z,231
2022-11-07T11:36:30.892Z,263
2022-11-07T11:38:32.123Z,228
2022-11-07T11:40:33.968Z,262
2022-11-07T11:46:38.215Z,244
2022-11-07T11:48:39.181Z,269
2022-11-07T11:50:40.360Z,268
2022-11-07T11:52:42.093Z,231
2022-11-07T11:54:43.257Z,231
2022-11-07T11:56:44.329Z,231
2022-11-07T12:00:47.893Z,231
2022-11-07T12:02:48.808Z,231
2022-11-07T12:04:50.043Z,231
2022-11-07T12:06:51.237Z,211
2022-11-07T12:08:52.645Z,211
2022-11-07T12:12:54.998Z,204
2022-11-07T12:16:57.926Z,205
2022-11-07T12:18:59.341Z,223
2022-11-07T12:23:01.904Z,210
2022-11-07T12:25:03.229Z,210
2022-11-07T12:27:04.972Z,211
2022-11-07T12:29:06.447Z,211
2022-11-07T12:31:08.063Z,267
2022-11-07T12:33:09.024Z,267
2022-11-07T12:35:10.398Z,209
2022-11-07T12:37:11.402Z,219
2022-11-07T12:39:12.945Z,219
2022-11-07T12:41:13.844Z,202
2022-11-07T12:43:15.803Z,201
2022-11-07T12:45:16.762Z,177
2022-11-07T12:47:17.974Z,177
2022-11-07T12:49:19.658Z,177
2022-11-07T12:51:21.203Z,187
2022-11-07T12:55:24.375Z,190
2022-11-07T12:57:26.015Z,189
2022-11-07T12:59:26.911Z,189
2022-11-07T13:01:27.990Z,189
2022-11-07T13:07:31.109Z,190
2022-11-07T13:09:32.546Z,177
2022-11-07T13:11:33.967Z,177
2022-11-07T13:13:35.757Z,180
2022-11-07T13:17:38.646Z,180
2022-11-07T13:19:40.537Z,180
2022-11-07T13:21:41.462Z,213
2022-11-07T13:23:42.376Z,194
2022-11-07T13:25:43.442Z,212
2022-11-07T13:27:44.843Z,211
2022-11-07T13:29:46.582Z,211
2022-11-07T13:31:48.238Z,204
2022-11-07T13:33:49.614Z,177
2022-11-07T13:35:50.932Z,177
2022-11-07T13:37:51.877Z,186
2022-11-07T13:39:52.731Z,213
2022-11-07T13:43:55.648Z,201
2022-11-07T13:45:56.170Z,201
2022-11-07T13:49:58.225Z,201
2022-11-07T13:54:00.567Z,170
2022-11-07T13:56:01.937Z,202
2022-11-07T13:58:03.509Z,225
2022-11-07T14:00:05.246Z,185
2022-11-07T14:02:06.752Z,170
2022-11-07T14:04:07.840Z,171
2022-11-07T14:06:09.013Z,196
2022-11-07T14:08:09.998Z,182
2022-11-07T14:10:11.712Z,181
2022-11-07T14:14:14.259Z,181
2022-11-07T14:16:15.609Z,181
2022-11-07T14:18:16.946Z,181
2022-11-07T14:20:18.326Z,181
2022-11-07T14:22:20.154Z,181
2022-11-07T14:26:22.795Z,182
2022-11-07T14:28:24.203Z,182
2022-11-07T14:30:25.086Z,189
2022-11-07T14:32:29.406Z,196
2022-11-07T14:36:29.417Z,198
2022-11-07T14:38:30.489Z,261
2022-11-07T14:42:33.379Z,185
2022-11-07T14:46:36.334Z,232
2022-11-07T14:48:37.949Z,161
2022-11-07T14:51:22.604Z,245
2022-11-07T14:53:23.617Z,245
2022-11-07T14:55:25.292Z,245
2022-11-07T14:57:26.294Z,246
2022-11-07T14:59:27.401Z,246
2022-11-07T15:01:29.380Z,246
2022-11-07T15:03:30.449Z,246
2022-11-07T15:05:31.682Z,246
2022-11-07T15:07:32.989Z,246
2022-11-07T15:09:34.186Z,246
2022-11-07T15:11:35.902Z,246
2022-11-07T15:13:37.257Z,246
2022-11-07T15:15:39.006Z,246
2022-11-07T15:19:41.410Z,246
2022-11-07T15:21:42.725Z,246
2022-11-07T15:25:45.573Z,246
2022-11-07T15:29:48.080Z,246
2022-11-07T15:31:49.820Z,246
2022-11-07T15:33:50.839Z,246
2022-11-07T15:35:51.977Z,246
2022-11-07T15:39:54.650Z,246
2022-11-07T15:41:55.648Z,246
2022-11-07T15:43:56.664Z,246
2022-11-07T15:45:58.526Z,246
2022-11-07T15:52:03.612Z,246
2022-11-07T15:54:04.979Z,246
2022-11-07T15:56:06.180Z,246
2022-11-07T15:58:07.219Z,246
2022-11-07T16:02:10.093Z,246
2022-11-07T16:04:11.331Z,246
2022-11-07T16:06:12.520Z,246
2022-11-07T16:08:21.667Z,246
2022-11-07T16:12:16.538Z,246
2022-11-07T16:14:36.702Z,246
2022-11-07T16:18:20.586Z,246
2022-11-07T16:22:23.670Z,246
2022-11-07T16:24:24.750Z,246
2022-11-07T16:28:27.602Z,246
2022-11-07T16:32:29.925Z,246
2022-11-07T16:34:31.070Z,246
2022-11-07T16:36:32.636Z,246
2022-11-07T16:38:35.315Z,246
2022-11-07T16:40:35.770Z,246
2022-11-07T16:42:36.993Z,246
2022-11-07T16:44:38.793Z,246
2022-11-07T16:46:40.141Z,246
2022-11-07T16:48:41.287Z,246
2022-11-07T16:50:42.844Z,246
2022-11-07T16:52:44.018Z,246
2022-11-07T16:54:45.475Z,246
2022-11-07T16:56:46.385Z,246
2022-11-07T17:00:49.568Z,246
2022-11-07T17:02:51.538Z,246
2022-11-07T17:04:52.833Z,246
2022-11-07T17:06:54.132Z,246
2022-11-07T17:10:57.662Z,246
2022-11-07T17:12:58.692Z,246
2022-11-07T17:14:59.627Z,246
2022-11-07T17:17:01.474Z,246
2022-11-07T17:19:03.207Z,246
2022-11-07T17:21:04.693Z,246
2022-11-07T17:23:05.814Z,246
2022-11-07T17:25:07.194Z,246
2022-11-07T17:27:08.878Z,246
2022-11-07T17:29:09.805Z,246
2022-11-07T17:31:10.842Z,246
2022-11-07T17:33:12.676Z,246
2022-11-07T17:37:15.682Z,246
2022-11-07T17:39:16.630Z,246
2022-11-07T17:43:19.093Z,246
2022-11-07T17:45:20.087Z,246
2022-11-07T17:47:21.047Z,246
2022-11-07T17:49:22.210Z,246
2022-11-07T17:53:25.628Z,246
2022-11-07T17:55:27.018Z,246
2022-11-07T17:59:29.230Z,246
2022-11-07T18:03:31.883Z,246
2022-11-07T18:05:33.584Z,246
2022-11-07T18:09:36.258Z,246
2022-11-07T18:13:38.841Z,246
2022-11-07T18:15:40.043Z,246
2022-11-07T18:19:42.735Z,246
2022-11-07T18:21:44.370Z,246
2022-11-07T18:23:45.754Z,246
2022-11-07T18:25:47.516Z,246
2022-11-07T18:31:51.536Z,109
2022-11-07T18:33:53.250Z,109
2022-11-07T18:35:54.483Z,109
2022-11-07T18:37:55.867Z,109
2022-11-07T18:41:58.849Z,109
2022-11-07T18:44:04.356Z,109
2022-11-07T18:46:01.578Z,109
2022-11-07T18:48:03.197Z,109
2022-11-07T18:52:06.765Z,109
2022-11-07T18:54:07.835Z,109
2022-11-07T18:56:09.633Z,109
2022-11-07T18:58:11.347Z,109
2022-11-07T19:00:13.759Z,109
2022-11-07T19:02:14.096Z,109
2022-11-07T19:04:15.139Z,109
2022-11-07T19:06:16.868Z,109
2022-11-07T19:08:18.248Z,109
2022-11-07T19:10:19.033Z,109
2022-11-07T19:12:20.243Z,109
2022-11-07T19:14:21.591Z,109
2022-11-07T19:16:22.534Z,109
2022-11-07T19:18:24.294Z,109
2022-11-07T19:20:25.270Z,109
2022-11-07T19:24:28.357Z,109
2022-11-07T19:26:29.654Z,109
2022-11-07T19:28:30.950Z,109
2022-11-07T19:30:32.229Z,109
2022-11-07T19:34:35.391Z,109
2022-11-07T19:36:36.824Z,109
2022-11-07T19:38:37.900Z,109
2022-11-07T19:40:39.018Z,109
2022-11-07T19:44:46.384Z,109
2022-11-07T19:46:43.542Z,109
2022-11-07T19:48:45.238Z,109
2022-11-07T19:50:46.994Z,109
2022-11-07T19:56:54.668Z,109
2022-11-07T19:58:51.394Z,109
2022-11-07T20:00:52.613Z,109
2022-11-07T20:02:54.137Z,109
2022-11-07T20:04:55.224Z,109
2022-11-07T20:06:56.695Z,109
2022-11-07T20:08:58.347Z,109
2022-11-07T20:10:59.588Z,109
2022-11-07T20:13:01.338Z,109
2022-11-07T20:17:04.388Z,109
2022-11-07T20:19:06.293Z,109
2022-11-07T20:23:09.089Z,109
2022-11-07T20:27:11.616Z,109
2022-11-07T20:29:12.686Z,109
2022-11-07T20:33:16.576Z,109
2022-11-07T20:37:19.701Z,109
2022-11-07T20:39:21.133Z,109
2022-11-07T20:43:23.393Z,109
2022-11-07T20:45:24.826Z,109
2022-11-07T20:47:26.213Z,109
2022-11-07T20:49:27.502Z,109
2022-11-07T20:51:28.441Z,109
2022-11-07T20:53:30.077Z,109
2022-11-07T20:55:30.913Z,109
2022-11-07T20:57:32.488Z,109
2022-11-07T20:59:34.371Z,109
2022-11-07T21:01:36.680Z,109
2022-11-07T21:05:38.733Z,109
2022-11-07T21:07:39.710Z,109
2022-11-07T21:09:41.226Z,109
2022-11-07T21:11:42.659Z,109
2022-11-07T21:15:45.528Z,99
2022-11-07T21:17:46.689Z,99
2022-11-07T21:19:47.854Z,99
2022-11-07T21:21:49.539Z,99
2022-11-07T21:23:50.752Z,99
2022-11-07T21:25:52.581Z,99
2022-11-07T21:27:53.599Z,99
2022-11-07T21:29:55.382Z,99
2022-11-07T21:31:57.100Z,99
2022-11-07T21:33:58.696Z,99
2022-11-07T21:36:00.149Z,99
2022-11-07T21:36:43.951Z,99
2022-11-07T21:38:45.464Z,99
2022-11-07T21:42:48.261Z,99
2022-11-07T21:44:49.568Z,99
2022-11-07T21:46:51.312Z,99
2022-11-07T21:48:52.944Z,99
2022-11-07T21:52:55.610Z,134
2022-11-07T21:54:56.677Z,134
2022-11-07T21:56:58.464Z,133
2022-11-07T21:58:59.577Z,133
2022-11-07T22:03:02.514Z,133
2022-11-07T22:05:04.062Z,133
2022-11-07T22:07:05.815Z,133
2022-11-07T22:09:07.577Z,133
2022-11-07T22:15:12.054Z,133
2022-11-07T22:17:13.513Z,133
2022-11-07T22:19:14.884Z,133
2022-11-07T22:21:16.543Z,133
2022-11-07T22:25:19.954Z,133
2022-11-07T22:27:21.776Z,133
2022-11-07T22:29:22.762Z,133
2022-11-07T22:31:24.217Z,133
2022-11-07T22:33:25.625Z,133
2022-11-07T22:35:27.121Z,133
2022-11-07T22:37:28.718Z,133
2022-11-07T22:39:29.753Z,133
2022-11-07T22:41:30.756Z,133
2022-11-07T22:45:33.535Z,132
2022-11-07T22:47:34.797Z,132
2022-11-07T22:51:37.419Z,132
2022-11-07T22:55:40.332Z,132
2022-11-07T22:57:41.740Z,132
2022-11-07T23:01:45.347Z,132
2022-11-07T23:03:46.751Z,132
2022-11-07T23:07:49.983Z,132
2022-11-07T23:09:51.278Z,132
2022-11-07T23:11:52.236Z,132
2022-11-07T23:13:53.211Z,132
2022-11-07T23:17:56.347Z,132
2022-11-07T23:19:57.843Z,132
2022-11-07T23:24:00.654Z,132
2022-11-07T23:28:03.438Z,132
2022-11-07T23:30:04.514Z,132
2022-11-07T23:34:07.279Z,132
2022-11-07T23:38:10.218Z,132
2022-11-07T23:40:11.388Z,132
2022-11-07T23:42:12.782Z,132
2022-11-07T23:44:14.698Z,132
2022-11-07T23:46:16.481Z,132
2022-11-07T23:48:17.751Z,132
2022-11-07T23:50:19.335Z,132
2022-11-07T23:52:20.857Z,132
2022-11-07T23:54:22.389Z,132
2022-11-07T23:56:24.297Z,132
2022-11-07T23:58:25.791Z,132
